sensor_id;sensor_type;location;lat;lon;timestamp;temperature;humidity
27266;DHT22;14766;51.380;13.762;2023-01-29T00:01:45;3.90;63.10
27266;DHT22;14766;51.380;13.762;2023-01-29T00:04:13;3.90;62.20
27266;DHT22;14766;51.380;13.762;2023-01-29T00:06:40;3.80;62.10
27266;DHT22;14766;51.380;13.762;2023-01-29T00:09:07;3.90;62.30
27266;DHT22;14766;51.380;13.762;2023-01-29T00:11:34;3.90;62.40
27266;DHT22;14766;51.380;13.762;2023-01-29T00:14:01;3.90;62.20
27266;DHT22;14766;51.380;13.762;2023-01-29T00:16:28;3.90;62.20
27266;DHT22;14766;51.380;13.762;2023-01-29T00:18:55;3.90;62.20
27266;DHT22;14766;51.380;13.762;2023-01-29T00:21:22;3.90;62.00
27266;DHT22;14766;51.380;13.762;2023-01-29T00:23:50;3.80;61.70
27266;DHT22;14766;51.380;13.762;2023-01-29T00:26:17;3.80;61.70
27266;DHT22;14766;51.380;13.762;2023-01-29T00:28:46;3.80;61.20
27266;DHT22;14766;51.380;13.762;2023-01-29T00:31:23;3.80;61.10
27266;DHT22;14766;51.380;13.762;2023-01-29T00:33:51;3.70;60.80
27266;DHT22;14766;51.380;13.762;2023-01-29T00:36:20;3.70;61.00
27266;DHT22;14766;51.380;13.762;2023-01-29T00:38:53;3.70;61.20
27266;DHT22;14766;51.380;13.762;2023-01-29T00:41:29;3.70;61.20
27266;DHT22;14766;51.380;13.762;2023-01-29T00:44:15;3.70;61.30
27266;DHT22;14766;51.380;13.762;2023-01-29T00:47:02;3.70;61.30
27266;DHT22;14766;51.380;13.762;2023-01-29T00:49:29;3.60;61.10
27266;DHT22;14766;51.380;13.762;2023-01-29T00:52:03;3.60;61.20
27266;DHT22;14766;51.380;13.762;2023-01-29T00:54:50;3.60;61.30
27266;DHT22;14766;51.380;13.762;2023-01-29T00:57:17;3.60;61.20
27266;DHT22;14766;51.380;13.762;2023-01-29T00:59:44;3.50;61.10
27266;DHT22;14766;51.380;13.762;2023-01-29T01:02:11;3.50;61.10
27266;DHT22;14766;51.380;13.762;2023-01-29T01:04:57;3.50;60.90
27266;DHT22;14766;51.380;13.762;2023-01-29T01:07:24;3.50;60.80
27266;DHT22;14766;51.380;13.762;2023-01-29T01:09:51;3.40;60.60
27266;DHT22;14766;51.380;13.762;2023-01-29T01:12:37;3.40;60.60
27266;DHT22;14766;51.380;13.762;2023-01-29T01:15:05;3.40;60.60
27266;DHT22;14766;51.380;13.762;2023-01-29T01:17:32;3.40;60.60
27266;DHT22;14766;51.380;13.762;2023-01-29T01:19:59;3.30;60.80
27266;DHT22;14766;51.380;13.762;2023-01-29T01:22:27;3.30;60.50
27266;DHT22;14766;51.380;13.762;2023-01-29T01:24:54;3.30;60.50
27266;DHT22;14766;51.380;13.762;2023-01-29T01:27:21;3.20;60.40
27266;DHT22;14766;51.380;13.762;2023-01-29T01:29:48;3.20;60.40
27266;DHT22;14766;51.380;13.762;2023-01-29T01:32:15;3.10;60.50
27266;DHT22;14766;51.380;13.762;2023-01-29T01:34:42;3.10;61.30
27266;DHT22;14766;51.380;13.762;2023-01-29T01:37:12;3.10;60.30
27266;DHT22;14766;51.380;13.762;2023-01-29T01:39:39;3.00;61.20
27266;DHT22;14766;51.380;13.762;2023-01-29T01:42:11;3.00;60.10
27266;DHT22;14766;51.380;13.762;2023-01-29T01:45:01;2.90;60.20
27266;DHT22;14766;51.380;13.762;2023-01-29T01:47:39;2.90;60.40
27266;DHT22;14766;51.380;13.762;2023-01-29T01:50:17;2.90;60.60
27266;DHT22;14766;51.380;13.762;2023-01-29T01:52:51;2.90;60.70
27266;DHT22;14766;51.380;13.762;2023-01-29T01:55:23;2.80;60.70
27266;DHT22;14766;51.380;13.762;2023-01-29T01:57:58;2.80;60.80
27266;DHT22;14766;51.380;13.762;2023-01-29T02:00:26;2.80;60.60
27266;DHT22;14766;51.380;13.762;2023-01-29T02:02:53;2.80;60.60
27266;DHT22;14766;51.380;13.762;2023-01-29T02:05:40;2.70;60.20
27266;DHT22;14766;51.380;13.762;2023-01-29T02:08:37;2.70;60.10
27266;DHT22;14766;51.380;13.762;2023-01-29T02:11:24;2.70;60.40
27266;DHT22;14766;51.380;13.762;2023-01-29T02:13:51;2.60;60.20
27266;DHT22;14766;51.380;13.762;2023-01-29T02:16:24;2.60;60.60
27266;DHT22;14766;51.380;13.762;2023-01-29T02:18:51;2.60;60.50
27266;DHT22;14766;51.380;13.762;2023-01-29T02:21:39;2.50;60.70
27266;DHT22;14766;51.380;13.762;2023-01-29T02:27:07;2.50;60.90
27266;DHT22;14766;51.380;13.762;2023-01-29T02:35:05;2.50;61.10
27266;DHT22;14766;51.380;13.762;2023-01-29T02:38:05;2.50;61.20
27266;DHT22;14766;51.380;13.762;2023-01-29T02:40:43;2.50;61.00
27266;DHT22;14766;51.380;13.762;2023-01-29T02:46:34;2.40;61.10
27266;DHT22;14766;51.380;13.762;2023-01-29T02:49:31;2.40;61.10
27266;DHT22;14766;51.380;13.762;2023-01-29T02:52:15;2.40;61.30
27266;DHT22;14766;51.380;13.762;2023-01-29T02:54:44;2.40;61.40
27266;DHT22;14766;51.380;13.762;2023-01-29T02:57:19;2.40;61.20
27266;DHT22;14766;51.380;13.762;2023-01-29T03:02:46;2.40;61.50
27266;DHT22;14766;51.380;13.762;2023-01-29T03:05:23;2.30;61.50
27266;DHT22;14766;51.380;13.762;2023-01-29T03:08:00;2.30;61.60
27266;DHT22;14766;51.380;13.762;2023-01-29T03:10:38;2.30;61.70
27266;DHT22;14766;51.380;13.762;2023-01-29T03:13:20;2.30;61.70
27266;DHT22;14766;51.380;13.762;2023-01-29T03:16:03;2.30;61.70
27266;DHT22;14766;51.380;13.762;2023-01-29T03:18:42;2.30;61.90
27266;DHT22;14766;51.380;13.762;2023-01-29T03:21:28;2.30;62.00
27266;DHT22;14766;51.380;13.762;2023-01-29T03:24:17;2.30;62.20
27266;DHT22;14766;51.380;13.762;2023-01-29T03:27:07;2.30;62.20
27266;DHT22;14766;51.380;13.762;2023-01-29T03:29:55;2.30;62.00
27266;DHT22;14766;51.380;13.762;2023-01-29T03:33:08;2.30;62.10
27266;DHT22;14766;51.380;13.762;2023-01-29T03:35:42;2.20;61.90
27266;DHT22;14766;51.380;13.762;2023-01-29T03:38:14;2.20;62.00
27266;DHT22;14766;51.380;13.762;2023-01-29T03:40:46;2.20;62.20
27266;DHT22;14766;51.380;13.762;2023-01-29T03:46:07;2.20;62.30
27266;DHT22;14766;51.380;13.762;2023-01-29T03:48:43;2.20;62.40
27266;DHT22;14766;51.380;13.762;2023-01-29T03:51:59;2.20;62.50
27266;DHT22;14766;51.380;13.762;2023-01-29T03:54:34;2.20;62.20
27266;DHT22;14766;51.380;13.762;2023-01-29T03:57:33;2.20;62.30
27266;DHT22;14766;51.380;13.762;2023-01-29T04:00:47;2.20;62.40
27266;DHT22;14766;51.380;13.762;2023-01-29T04:05:41;2.10;61.90
27266;DHT22;14766;51.380;13.762;2023-01-29T04:08:24;2.10;62.00
27266;DHT22;14766;51.380;13.762;2023-01-29T04:10:56;2.10;62.20
27266;DHT22;14766;51.380;13.762;2023-01-29T04:13:26;2.10;62.30
27266;DHT22;14766;51.380;13.762;2023-01-29T04:15:56;2.10;62.40
27266;DHT22;14766;51.380;13.762;2023-01-29T04:18:50;2.10;62.30
27266;DHT22;14766;51.380;13.762;2023-01-29T04:21:24;2.10;62.20
27266;DHT22;14766;51.380;13.762;2023-01-29T04:23:51;2.10;62.30
27266;DHT22;14766;51.380;13.762;2023-01-29T04:30:17;2.00;62.30
27266;DHT22;14766;51.380;13.762;2023-01-29T04:33:00;2.00;62.40
27266;DHT22;14766;51.380;13.762;2023-01-29T04:35:36;2.00;62.50
27266;DHT22;14766;51.380;13.762;2023-01-29T04:38:17;2.00;62.40
27266;DHT22;14766;51.380;13.762;2023-01-29T04:41:10;2.00;62.40
27266;DHT22;14766;51.380;13.762;2023-01-29T04:44:10;2.00;62.60
27266;DHT22;14766;51.380;13.762;2023-01-29T04:52:23;2.10;63.00
27266;DHT22;14766;51.380;13.762;2023-01-29T04:55:03;2.10;62.90
27266;DHT22;14766;51.380;13.762;2023-01-29T04:58:07;2.10;62.80
27266;DHT22;14766;51.380;13.762;2023-01-29T05:00:37;2.10;62.60
27266;DHT22;14766;51.380;13.762;2023-01-29T05:03:06;2.10;62.60
27266;DHT22;14766;51.380;13.762;2023-01-29T05:05:36;2.10;62.80
27266;DHT22;14766;51.380;13.762;2023-01-29T05:08:05;2.10;62.70
27266;DHT22;14766;51.380;13.762;2023-01-29T05:10:34;2.10;62.80
27266;DHT22;14766;51.380;13.762;2023-01-29T05:13:03;2.10;62.90
27266;DHT22;14766;51.380;13.762;2023-01-29T05:15:38;2.10;63.00
27266;DHT22;14766;51.380;13.762;2023-01-29T05:18:06;2.10;63.00
27266;DHT22;14766;51.380;13.762;2023-01-29T05:20:39;2.10;62.90
27266;DHT22;14766;51.380;13.762;2023-01-29T05:23:18;2.10;62.80
27266;DHT22;14766;51.380;13.762;2023-01-29T05:25:46;2.10;62.70
27266;DHT22;14766;51.380;13.762;2023-01-29T05:28:13;2.10;62.50
27266;DHT22;14766;51.380;13.762;2023-01-29T05:30:54;2.10;62.50
27266;DHT22;14766;51.380;13.762;2023-01-29T05:33:25;2.10;62.90
27266;DHT22;14766;51.380;13.762;2023-01-29T05:35:52;2.10;62.90
27266;DHT22;14766;51.380;13.762;2023-01-29T05:38:20;2.10;62.70
27266;DHT22;14766;51.380;13.762;2023-01-29T05:40:47;2.10;62.80
27266;DHT22;14766;51.380;13.762;2023-01-29T05:43:16;2.10;62.90
27266;DHT22;14766;51.380;13.762;2023-01-29T05:45:55;2.10;62.80
27266;DHT22;14766;51.380;13.762;2023-01-29T05:48:23;2.10;63.00
27266;DHT22;14766;51.380;13.762;2023-01-29T05:50:50;2.10;63.00
27266;DHT22;14766;51.380;13.762;2023-01-29T05:53:17;2.10;64.00
27266;DHT22;14766;51.380;13.762;2023-01-29T05:55:45;2.20;63.50
27266;DHT22;14766;51.380;13.762;2023-01-29T05:58:13;2.20;63.40
27266;DHT22;14766;51.380;13.762;2023-01-29T06:00:40;2.20;63.20
27266;DHT22;14766;51.380;13.762;2023-01-29T06:03:07;2.20;63.10
27266;DHT22;14766;51.380;13.762;2023-01-29T06:05:38;2.20;62.90
27266;DHT22;14766;51.380;13.762;2023-01-29T06:08:06;2.30;63.10
27266;DHT22;14766;51.380;13.762;2023-01-29T06:10:34;2.30;63.20
27266;DHT22;14766;51.380;13.762;2023-01-29T06:13:01;2.30;63.10
27266;DHT22;14766;51.380;13.762;2023-01-29T06:15:29;2.30;63.00
27266;DHT22;14766;51.380;13.762;2023-01-29T06:17:56;2.30;63.00
27266;DHT22;14766;51.380;13.762;2023-01-29T06:20:23;2.40;62.80
27266;DHT22;14766;51.380;13.762;2023-01-29T06:22:50;2.40;62.80
27266;DHT22;14766;51.380;13.762;2023-01-29T06:25:17;2.40;62.60
27266;DHT22;14766;51.380;13.762;2023-01-29T06:27:44;2.40;62.70
27266;DHT22;14766;51.380;13.762;2023-01-29T06:30:12;2.40;62.70
27266;DHT22;14766;51.380;13.762;2023-01-29T06:32:39;2.40;62.70
27266;DHT22;14766;51.380;13.762;2023-01-29T06:35:06;2.50;62.90
27266;DHT22;14766;51.380;13.762;2023-01-29T06:37:35;2.50;62.90
27266;DHT22;14766;51.380;13.762;2023-01-29T06:40:03;2.50;62.80
27266;DHT22;14766;51.380;13.762;2023-01-29T06:42:30;2.50;62.80
27266;DHT22;14766;51.380;13.762;2023-01-29T06:44:57;2.60;62.70
27266;DHT22;14766;51.380;13.762;2023-01-29T06:47:25;2.60;62.50
27266;DHT22;14766;51.380;13.762;2023-01-29T06:49:52;2.60;62.60
27266;DHT22;14766;51.380;13.762;2023-01-29T06:52:19;2.60;62.60
27266;DHT22;14766;51.380;13.762;2023-01-29T06:54:46;2.60;62.50
27266;DHT22;14766;51.380;13.762;2023-01-29T06:57:13;2.60;62.50
27266;DHT22;14766;51.380;13.762;2023-01-29T06:59:40;2.60;62.30
27266;DHT22;14766;51.380;13.762;2023-01-29T07:02:08;2.60;62.10
27266;DHT22;14766;51.380;13.762;2023-01-29T07:04:35;2.60;62.30
27266;DHT22;14766;51.380;13.762;2023-01-29T07:07:04;2.60;62.40
27266;DHT22;14766;51.380;13.762;2023-01-29T07:09:31;2.60;62.50
27266;DHT22;14766;51.380;13.762;2023-01-29T07:11:58;2.70;62.50
27266;DHT22;14766;51.380;13.762;2023-01-29T07:14:25;2.70;62.30
27266;DHT22;14766;51.380;13.762;2023-01-29T07:16:52;2.70;62.40
27266;DHT22;14766;51.380;13.762;2023-01-29T07:19:19;2.70;62.40
27266;DHT22;14766;51.380;13.762;2023-01-29T07:21:46;2.70;62.50
27266;DHT22;14766;51.380;13.762;2023-01-29T07:24:13;2.70;62.50
27266;DHT22;14766;51.380;13.762;2023-01-29T07:26:42;2.70;62.30
27266;DHT22;14766;51.380;13.762;2023-01-29T07:29:09;2.70;62.30
27266;DHT22;14766;51.380;13.762;2023-01-29T07:31:36;2.70;62.50
27266;DHT22;14766;51.380;13.762;2023-01-29T07:34:03;2.70;62.50
27266;DHT22;14766;51.380;13.762;2023-01-29T07:36:30;2.70;62.50
27266;DHT22;14766;51.380;13.762;2023-01-29T07:38:57;2.70;62.70
27266;DHT22;14766;51.380;13.762;2023-01-29T07:41:25;2.70;62.70
27266;DHT22;14766;51.380;13.762;2023-01-29T07:43:53;2.70;62.70
27266;DHT22;14766;51.380;13.762;2023-01-29T07:46:20;2.70;62.70
27266;DHT22;14766;51.380;13.762;2023-01-29T07:48:47;2.70;62.80
27266;DHT22;14766;51.380;13.762;2023-01-29T07:51:14;2.70;62.80
27266;DHT22;14766;51.380;13.762;2023-01-29T07:53:42;2.70;62.80
27266;DHT22;14766;51.380;13.762;2023-01-29T07:56:10;2.70;63.20
27266;DHT22;14766;51.380;13.762;2023-01-29T07:58:38;2.70;63.30
27266;DHT22;14766;51.380;13.762;2023-01-29T08:01:06;2.70;63.30
27266;DHT22;14766;51.380;13.762;2023-01-29T08:03:33;2.80;63.20
27266;DHT22;14766;51.380;13.762;2023-01-29T08:06:02;2.70;63.10
27266;DHT22;14766;51.380;13.762;2023-01-29T08:08:30;2.70;63.30
27266;DHT22;14766;51.380;13.762;2023-01-29T08:11:00;2.70;63.50
27266;DHT22;14766;51.380;13.762;2023-01-29T08:13:28;2.70;63.80
27266;DHT22;14766;51.380;13.762;2023-01-29T08:15:59;2.70;63.80
27266;DHT22;14766;51.380;13.762;2023-01-29T08:18:27;2.70;64.00
27266;DHT22;14766;51.380;13.762;2023-01-29T08:21:00;2.70;64.10
27266;DHT22;14766;51.380;13.762;2023-01-29T08:23:28;2.70;64.40
27266;DHT22;14766;51.380;13.762;2023-01-29T08:25:56;2.70;64.50
27266;DHT22;14766;51.380;13.762;2023-01-29T08:28:23;2.70;64.60
27266;DHT22;14766;51.380;13.762;2023-01-29T08:30:50;2.70;64.60
27266;DHT22;14766;51.380;13.762;2023-01-29T08:33:17;2.70;64.80
27266;DHT22;14766;51.380;13.762;2023-01-29T08:35:52;2.80;64.80
27266;DHT22;14766;51.380;13.762;2023-01-29T08:38:19;2.70;64.40
27266;DHT22;14766;51.380;13.762;2023-01-29T08:40:47;2.80;64.60
27266;DHT22;14766;51.380;13.762;2023-01-29T08:43:14;2.80;64.60
27266;DHT22;14766;51.380;13.762;2023-01-29T08:45:42;2.80;64.40
27266;DHT22;14766;51.380;13.762;2023-01-29T08:48:10;2.80;64.50
27266;DHT22;14766;51.380;13.762;2023-01-29T08:50:37;2.80;64.50
27266;DHT22;14766;51.380;13.762;2023-01-29T08:53:06;2.90;64.50
27266;DHT22;14766;51.380;13.762;2023-01-29T08:55:40;2.80;64.30
27266;DHT22;14766;51.380;13.762;2023-01-29T08:58:09;2.90;64.20
27266;DHT22;14766;51.380;13.762;2023-01-29T09:00:37;2.90;64.10
27266;DHT22;14766;51.380;13.762;2023-01-29T09:03:05;2.90;63.90
27266;DHT22;14766;51.380;13.762;2023-01-29T09:05:35;2.90;64.20
27266;DHT22;14766;51.380;13.762;2023-01-29T09:08:02;2.90;64.30
27266;DHT22;14766;51.380;13.762;2023-01-29T09:10:30;2.90;64.20
27266;DHT22;14766;51.380;13.762;2023-01-29T09:12:57;2.90;64.30
27266;DHT22;14766;51.380;13.762;2023-01-29T09:15:24;3.00;64.20
27266;DHT22;14766;51.380;13.762;2023-01-29T09:17:51;3.00;63.70
27266;DHT22;14766;51.380;13.762;2023-01-29T09:20:19;3.00;63.70
27266;DHT22;14766;51.380;13.762;2023-01-29T09:22:47;2.90;64.00
27266;DHT22;14766;51.380;13.762;2023-01-29T09:25:16;3.00;64.30
27266;DHT22;14766;51.380;13.762;2023-01-29T09:27:44;3.00;64.60
27266;DHT22;14766;51.380;13.762;2023-01-29T09:30:11;3.00;64.60
27266;DHT22;14766;51.380;13.762;2023-01-29T09:32:38;3.00;64.70
27266;DHT22;14766;51.380;13.762;2023-01-29T09:35:22;3.00;64.80
27266;DHT22;14766;51.380;13.762;2023-01-29T09:37:50;3.00;64.70
27266;DHT22;14766;51.380;13.762;2023-01-29T09:40:57;3.10;64.40
27266;DHT22;14766;51.380;13.762;2023-01-29T09:46:37;3.20;64.40
27266;DHT22;14766;51.380;13.762;2023-01-29T09:49:14;3.20;64.30
27266;DHT22;14766;51.380;13.762;2023-01-29T09:51:43;3.20;64.30
27266;DHT22;14766;51.380;13.762;2023-01-29T09:56:59;3.30;63.60
27266;DHT22;14766;51.380;13.762;2023-01-29T09:59:30;3.30;63.60
27266;DHT22;14766;51.380;13.762;2023-01-29T10:08:18;3.30;63.80
27266;DHT22;14766;51.380;13.762;2023-01-29T10:22:48;3.40;63.70
27266;DHT22;14766;51.380;13.762;2023-01-29T10:25:20;3.40;63.70
27266;DHT22;14766;51.380;13.762;2023-01-29T10:27:56;3.40;63.70
27266;DHT22;14766;51.380;13.762;2023-01-29T10:30:33;3.40;63.90
27266;DHT22;14766;51.380;13.762;2023-01-29T10:33:04;3.40;64.20
27266;DHT22;14766;51.380;13.762;2023-01-29T10:35:42;3.40;64.30
27266;DHT22;14766;51.380;13.762;2023-01-29T10:38:37;3.40;64.30
27266;DHT22;14766;51.380;13.762;2023-01-29T11:00:41;3.40;65.80
27266;DHT22;14766;51.380;13.762;2023-01-29T11:03:24;3.40;66.10
27266;DHT22;14766;51.380;13.762;2023-01-29T11:11:14;3.40;66.80
27266;DHT22;14766;51.380;13.762;2023-01-29T11:14:01;3.30;67.00
27266;DHT22;14766;51.380;13.762;2023-01-29T11:16:45;3.40;67.30
27266;DHT22;14766;51.380;13.762;2023-01-29T11:19:14;3.30;67.30
27266;DHT22;14766;51.380;13.762;2023-01-29T11:21:59;3.30;67.50
27266;DHT22;14766;51.380;13.762;2023-01-29T11:24:27;3.30;68.20
27266;DHT22;14766;51.380;13.762;2023-01-29T11:26:56;3.30;67.70
27266;DHT22;14766;51.380;13.762;2023-01-29T11:31:56;3.30;68.70
27266;DHT22;14766;51.380;13.762;2023-01-29T11:34:25;3.40;68.30
27266;DHT22;14766;51.380;13.762;2023-01-29T11:37:00;3.40;68.10
27266;DHT22;14766;51.380;13.762;2023-01-29T11:39:29;3.40;68.00
27266;DHT22;14766;51.380;13.762;2023-01-29T11:41:59;3.50;68.20
27266;DHT22;14766;51.380;13.762;2023-01-29T11:47:09;3.50;68.00
27266;DHT22;14766;51.380;13.762;2023-01-29T11:49:38;3.60;67.90
27266;DHT22;14766;51.380;13.762;2023-01-29T11:52:08;3.60;67.90
27266;DHT22;14766;51.380;13.762;2023-01-29T11:57:35;3.70;67.30
27266;DHT22;14766;51.380;13.762;2023-01-29T12:00:25;3.70;67.30
27266;DHT22;14766;51.380;13.762;2023-01-29T12:03:15;3.70;67.30
27266;DHT22;14766;51.380;13.762;2023-01-29T12:06:05;3.70;67.50
27266;DHT22;14766;51.380;13.762;2023-01-29T12:08:37;3.80;67.30
27266;DHT22;14766;51.380;13.762;2023-01-29T12:11:32;3.80;67.00
27266;DHT22;14766;51.380;13.762;2023-01-29T12:14:02;3.80;67.00
27266;DHT22;14766;51.380;13.762;2023-01-29T12:16:43;3.80;67.10
27266;DHT22;14766;51.380;13.762;2023-01-29T12:20:00;3.90;67.20
27266;DHT22;14766;51.380;13.762;2023-01-29T12:25:36;4.00;66.50
27266;DHT22;14766;51.380;13.762;2023-01-29T12:28:49;4.00;66.10
27266;DHT22;14766;51.380;13.762;2023-01-29T12:31:25;4.00;65.80
27266;DHT22;14766;51.380;13.762;2023-01-29T12:37:21;4.10;65.80
27266;DHT22;14766;51.380;13.762;2023-01-29T12:39:48;4.10;66.00
27266;DHT22;14766;51.380;13.762;2023-01-29T12:42:19;4.10;65.70
27266;DHT22;14766;51.380;13.762;2023-01-29T12:45:09;4.10;65.30
27266;DHT22;14766;51.380;13.762;2023-01-29T12:47:48;4.10;65.10
27266;DHT22;14766;51.380;13.762;2023-01-29T12:50:32;4.10;65.10
27266;DHT22;14766;51.380;13.762;2023-01-29T12:53:05;4.10;65.10
27266;DHT22;14766;51.380;13.762;2023-01-29T12:55:59;4.20;64.90
27266;DHT22;14766;51.380;13.762;2023-01-29T12:58:51;4.20;65.00
27266;DHT22;14766;51.380;13.762;2023-01-29T13:01:26;4.20;64.90
27266;DHT22;14766;51.380;13.762;2023-01-29T13:04:09;4.20;64.70
27266;DHT22;14766;51.380;13.762;2023-01-29T13:06:53;4.20;64.70
27266;DHT22;14766;51.380;13.762;2023-01-29T13:09:28;4.20;64.80
27266;DHT22;14766;51.380;13.762;2023-01-29T13:12:10;4.20;64.80
27266;DHT22;14766;51.380;13.762;2023-01-29T13:14:55;4.20;64.90
27266;DHT22;14766;51.380;13.762;2023-01-29T13:20:09;4.20;64.70
27266;DHT22;14766;51.380;13.762;2023-01-29T13:22:38;4.20;64.70
27266;DHT22;14766;51.380;13.762;2023-01-29T13:25:13;4.20;64.80
27266;DHT22;14766;51.380;13.762;2023-01-29T13:27:42;4.20;64.90
27266;DHT22;14766;51.380;13.762;2023-01-29T13:30:29;4.20;64.60
27266;DHT22;14766;51.380;13.762;2023-01-29T13:32:59;4.20;64.80
27266;DHT22;14766;51.380;13.762;2023-01-29T13:35:41;4.20;64.70
27266;DHT22;14766;51.380;13.762;2023-01-29T13:38:29;4.20;64.60
27266;DHT22;14766;51.380;13.762;2023-01-29T13:41:03;4.20;64.50
27266;DHT22;14766;51.380;13.762;2023-01-29T13:43:41;4.20;64.60
27266;DHT22;14766;51.380;13.762;2023-01-29T13:46:15;4.20;64.70
27266;DHT22;14766;51.380;13.762;2023-01-29T13:48:48;4.20;64.80
27266;DHT22;14766;51.380;13.762;2023-01-29T13:51:20;4.20;64.90
27266;DHT22;14766;51.380;13.762;2023-01-29T13:53:59;4.20;64.70
27266;DHT22;14766;51.380;13.762;2023-01-29T13:59:04;4.20;64.70
27266;DHT22;14766;51.380;13.762;2023-01-29T14:06:49;4.20;65.00
27266;DHT22;14766;51.380;13.762;2023-01-29T14:15:01;4.20;65.20
27266;DHT22;14766;51.380;13.762;2023-01-29T14:17:30;4.20;65.30
27266;DHT22;14766;51.380;13.762;2023-01-29T14:20:14;4.30;65.40
27266;DHT22;14766;51.380;13.762;2023-01-29T14:22:42;4.30;65.10
27266;DHT22;14766;51.380;13.762;2023-01-29T14:25:17;4.30;64.90
27266;DHT22;14766;51.380;13.762;2023-01-29T14:27:47;4.30;64.90
27266;DHT22;14766;51.380;13.762;2023-01-29T14:30:16;4.30;64.80
27266;DHT22;14766;51.380;13.762;2023-01-29T14:32:48;4.40;64.90
27266;DHT22;14766;51.380;13.762;2023-01-29T14:35:22;4.30;64.60
27266;DHT22;14766;51.380;13.762;2023-01-29T14:37:53;4.40;64.70
27266;DHT22;14766;51.380;13.762;2023-01-29T14:40:24;4.40;64.30
27266;DHT22;14766;51.380;13.762;2023-01-29T14:53:19;4.40;64.30
27266;DHT22;14766;51.380;13.762;2023-01-29T14:55:56;4.30;64.30
27266;DHT22;14766;51.380;13.762;2023-01-29T14:58:51;4.40;64.50
27266;DHT22;14766;51.380;13.762;2023-01-29T15:01:30;4.40;64.40
27266;DHT22;14766;51.380;13.762;2023-01-29T15:06:47;4.40;64.40
27266;DHT22;14766;51.380;13.762;2023-01-29T15:09:26;4.40;64.40
27266;DHT22;14766;51.380;13.762;2023-01-29T15:12:32;4.40;64.40
27266;DHT22;14766;51.380;13.762;2023-01-29T15:20:39;4.40;64.10
27266;DHT22;14766;51.380;13.762;2023-01-29T15:23:26;4.30;64.10
27266;DHT22;14766;51.380;13.762;2023-01-29T15:26:06;4.30;63.80
27266;DHT22;14766;51.380;13.762;2023-01-29T15:28:34;4.30;63.80
27266;DHT22;14766;51.380;13.762;2023-01-29T15:31:06;4.20;63.90
27266;DHT22;14766;51.380;13.762;2023-01-29T15:33:37;4.20;64.10
27266;DHT22;14766;51.380;13.762;2023-01-29T15:36:07;4.20;64.30
27266;DHT22;14766;51.380;13.762;2023-01-29T15:38:44;4.20;64.40
27266;DHT22;14766;51.380;13.762;2023-01-29T15:41:19;4.20;64.60
27266;DHT22;14766;51.380;13.762;2023-01-29T15:43:49;4.20;64.70
27266;DHT22;14766;51.380;13.762;2023-01-29T15:46:33;4.20;64.80
27266;DHT22;14766;51.380;13.762;2023-01-29T15:49:20;4.20;64.80
27266;DHT22;14766;51.380;13.762;2023-01-29T15:51:54;4.20;64.50
27266;DHT22;14766;51.380;13.762;2023-01-29T15:54:24;4.20;64.30
27266;DHT22;14766;51.380;13.762;2023-01-29T15:56:53;4.20;64.20
27266;DHT22;14766;51.380;13.762;2023-01-29T15:59:26;4.10;64.10
27266;DHT22;14766;51.380;13.762;2023-01-29T16:01:55;4.10;64.30
27266;DHT22;14766;51.380;13.762;2023-01-29T16:04:26;4.20;64.40
27266;DHT22;14766;51.380;13.762;2023-01-29T16:06:58;4.10;64.10
27266;DHT22;14766;51.380;13.762;2023-01-29T16:09:27;4.10;64.10
27266;DHT22;14766;51.380;13.762;2023-01-29T16:11:57;4.10;64.30
27266;DHT22;14766;51.380;13.762;2023-01-29T16:14:25;4.10;64.10
27266;DHT22;14766;51.380;13.762;2023-01-29T16:16:54;4.10;63.70
27266;DHT22;14766;51.380;13.762;2023-01-29T16:19:27;4.10;63.80
27266;DHT22;14766;51.380;13.762;2023-01-29T16:21:59;4.10;64.10
27266;DHT22;14766;51.380;13.762;2023-01-29T16:24:28;4.00;64.10
27266;DHT22;14766;51.380;13.762;2023-01-29T16:26:59;4.10;64.00
27266;DHT22;14766;51.380;13.762;2023-01-29T16:29:32;4.10;64.10
27266;DHT22;14766;51.380;13.762;2023-01-29T16:32:00;4.10;64.30
27266;DHT22;14766;51.380;13.762;2023-01-29T16:34:35;4.10;64.30
27266;DHT22;14766;51.380;13.762;2023-01-29T16:37:06;4.00;65.20
27266;DHT22;14766;51.380;13.762;2023-01-29T16:39:45;4.10;64.50
27266;DHT22;14766;51.380;13.762;2023-01-29T16:45:00;4.00;64.50
27266;DHT22;14766;51.380;13.762;2023-01-29T16:53:02;4.00;64.30
27266;DHT22;14766;51.380;13.762;2023-01-29T16:55:43;4.00;64.20
27266;DHT22;14766;51.380;13.762;2023-01-29T16:58:24;4.00;64.20
27266;DHT22;14766;51.380;13.762;2023-01-29T17:00:58;4.00;64.30
27266;DHT22;14766;51.380;13.762;2023-01-29T17:03:29;3.90;64.00
27266;DHT22;14766;51.380;13.762;2023-01-29T17:05:58;3.90;64.10
27266;DHT22;14766;51.380;13.762;2023-01-29T17:08:32;3.90;64.20
27266;DHT22;14766;51.380;13.762;2023-01-29T17:11:00;3.90;64.30
27266;DHT22;14766;51.380;13.762;2023-01-29T17:13:37;3.90;64.30
27266;DHT22;14766;51.380;13.762;2023-01-29T17:16:22;3.90;64.10
27266;DHT22;14766;51.380;13.762;2023-01-29T17:18:52;3.90;64.30
27266;DHT22;14766;51.380;13.762;2023-01-29T17:21:19;3.90;64.80
27266;DHT22;14766;51.380;13.762;2023-01-29T17:23:46;3.80;64.60
27266;DHT22;14766;51.380;13.762;2023-01-29T17:26:14;3.90;64.60
27266;DHT22;14766;51.380;13.762;2023-01-29T17:28:42;3.90;64.40
27266;DHT22;14766;51.380;13.762;2023-01-29T17:31:09;3.90;64.40
27266;DHT22;14766;51.380;13.762;2023-01-29T17:33:40;3.90;64.20
27266;DHT22;14766;51.380;13.762;2023-01-29T17:36:12;3.90;64.10
27266;DHT22;14766;51.380;13.762;2023-01-29T17:38:39;3.90;64.30
27266;DHT22;14766;51.380;13.762;2023-01-29T17:41:28;3.90;64.10
27266;DHT22;14766;51.380;13.762;2023-01-29T17:43:56;3.90;64.10
27266;DHT22;14766;51.380;13.762;2023-01-29T17:46:23;3.90;63.90
27266;DHT22;14766;51.380;13.762;2023-01-29T17:48:52;3.90;64.10
27266;DHT22;14766;51.380;13.762;2023-01-29T17:51:19;3.90;64.30
27266;DHT22;14766;51.380;13.762;2023-01-29T17:53:50;3.90;64.10
27266;DHT22;14766;51.380;13.762;2023-01-29T17:56:23;3.90;64.00
27266;DHT22;14766;51.380;13.762;2023-01-29T17:58:53;3.90;64.10
27266;DHT22;14766;51.380;13.762;2023-01-29T18:01:20;3.90;64.10
27266;DHT22;14766;51.380;13.762;2023-01-29T18:03:47;3.90;64.10
27266;DHT22;14766;51.380;13.762;2023-01-29T18:06:28;3.90;64.10
27266;DHT22;14766;51.380;13.762;2023-01-29T18:08:55;3.90;64.30
27266;DHT22;14766;51.380;13.762;2023-01-29T18:11:23;3.90;64.30
27266;DHT22;14766;51.380;13.762;2023-01-29T18:13:50;3.80;64.00
27266;DHT22;14766;51.380;13.762;2023-01-29T18:16:17;3.90;64.30
27266;DHT22;14766;51.380;13.762;2023-01-29T18:18:44;3.90;64.40
27266;DHT22;14766;51.380;13.762;2023-01-29T18:21:11;3.80;64.20
27266;DHT22;14766;51.380;13.762;2023-01-29T18:23:38;3.80;64.10
27266;DHT22;14766;51.380;13.762;2023-01-29T18:26:05;3.80;63.90